EKOD/ODE METAR and TAF weather

Enter ICAO airport designator
Station Type Date Time Source
EKOD METAR 2020/07/13 12:50 UTC NOAA

EKOD 131250Z VRB07KT 9999 FEW040 18/11 Q1021


Station Type Date Time Source
EKOD Decoded METAR 2020/07/13 12:50 UTC NOAA

Odense / Beldringe, Denmark (EKOD) 55-29N 010-20E 17M
Jul 13, 2020 - 08:50 AM EDT / 2020.07.13 1250 UTC
Wind: Variable at 8 MPH (7 KT):0
Visibility: greater than 7 mile(s):0
Sky conditions: mostly clear
Temperature: 64 F (18 C)
Dew Point: 51 F (11 C)
Relative Humidity: 63%
Pressure (altimeter): 30.15 in. Hg (1021 hPa)
ob: EKOD 131250Z VRB07KT 9999 FEW040 18/11 Q1021
cycle: 13

Station Type Date Time Source
EKOD TAF 2015/04/20 17:00 UTC NOAA

TAF
AMD EKOD 201701Z 2017/2018 CNL

Example: see airport list